Griffin, Texas
Current Conditions -  °F | °C
As of 6:35 PM on Tuesday 25 Nov 2014 (Local Time) from KJSO Reporting Station
Clear Clear  
Wind Chill: 56°   Ceiling: Unl
Heat Index: 56°   Visibility: 10mi
Dew Point: 27°   Wind: 3mph
Humidity: 33%   Direction: 210°SSW
Pressure: 30.2"   Gusts: NA
Location:  32.0774°N, 95.1103°W
Report Text: KJSO 260035Z AUTO 21003KT 10SM CLR 13/M02 A3020 RMK AO2 T01311029
Loading
Personal Weather Stations






























Interactive Weather Map New forecast layout! Learn more

10-Day Weather Forecast

Advertisements
Track Severe Weather on mobile